Latest Weather Observations for Telfer

IDW60801

Issued at 1:05 pm WST Wednesday 26 November 2014 (issued every 30 minutes, with the page automatically refreshed every 10 minutes)

About weather observations | Map of weather stations | Latest weather observations for WA | Other Formats
Station Details ID: 013030 Name: TELFER AERO Lat: -21.71 Lon: 122.23 Height: 291.9 m
Data from the previous 72 hours. | See also: Recent months at Telfer
Date/Time
WST
Temp
°C
App
Temp
°C
Dew
Point
Rel
Hum
%
Delta-T
°C
Wind Press
QNH
hPa
Press
MSL
hPa
Rain
since 9 am
mm
Dir
 
Spd
km/h
Gust
km/h
Spd
kts
Gust
kts
26/01:00pm 34.7 32.7 15.6 32 12.1 E 20 32 11 17 1009.6 1007.3 0.0
26/12:30pm 34.0 31.8 15.0 32 11.9 NE 20 32 11 17 1009.9 1007.6 0.0
26/12:00pm 34.0 31.2 15.4 32 11.8 E 24 35 13 19 1010.3 1008.0 0.0
26/11:30am 32.8 30.5 15.8 36 10.7 E 22 39 12 21 1010.8 1008.5 0.0
26/11:00am 32.2 29.5 16.5 39 10.0 E 26 37 14 20 1011.2 1008.9 0.0
26/10:30am 31.4 29.1 16.6 41 9.4 ESE 24 32 13 17 1011.8 1009.6 0.0
26/10:00am 30.7 28.5 17.0 43 8.8 E 24 35 13 19 1012.1 1009.9 0.0
26/09:30am 29.2 26.5 16.7 46 7.9 ESE 26 35 14 19 1012.2 1010.0 0.0
26/09:00am 29.3 26.9 16.5 46 8.1 ESE 24 32 13 17 1012.6 1010.4 4.8
26/08:30am 28.6 25.6 15.8 45 8.0 ESE 26 35 14 19 1013.0 1010.8 4.6
26/08:00am 27.6 25.1 16.2 49 7.1 ESE 24 33 13 18 1012.9 1010.7 4.6
26/07:30am 26.0 24.3 17.1 58 5.6 ESE 22 26 12 14 1012.9 1010.7 4.6
26/07:00am 25.3 24.8 17.7 62 4.8 SSE 17 20 9 11 1013.0 1010.8 4.6
26/06:30am 23.8 22.8 17.5 68 4.0 SE 19 24 10 13 1013.4 1011.1 4.6
26/06:00am 23.6 23.0 17.6 69 3.8 SSE 17 22 9 12 1013.3 1011.0 4.6
26/05:30am 22.4 22.3 17.8 75 2.9 SE 15 20 8 11 1012.6 1010.4 4.6
26/05:00am 21.4 20.5 17.8 80 2.3 ESE 19 26 10 14 1012.1 1009.9 4.6
26/04:30am 21.8 22.7 17.6 77 2.6 SE 9 11 5 6 1013.2 1010.9 4.6
26/04:00am 22.1 22.1 17.2 74 3.0 SE 13 17 7 9 1012.8 1010.6 4.6
26/03:30am 22.3 20.9 17.0 72 3.3 SSE 20 26 11 14 1012.7 1010.5 4.6
26/03:00am 22.8 20.6 16.8 69 3.7 S 24 32 13 17 1013.0 1010.8 4.6
26/02:30am 23.2 22.8 17.2 69 3.7 SSW 15 19 8 10 1013.3 1011.0 4.6
26/02:00am 23.1 21.2 17.6 71 3.5 S 24 33 13 18 1012.7 1010.5 4.6
26/01:30am 23.7 22.9 17.9 70 3.7 S 19 22 10 12 1014.0 1011.7 4.6
26/01:00am 24.0 22.0 17.5 67 4.1 S 24 32 13 17 1013.6 1011.3 4.6
26/12:30am 24.1 22.1 17.4 66 4.2 SSW 24 33 13 18 1012.9 1010.7 4.6
26/12:00am 24.2 22.1 17.2 65 4.4 SSW 24 35 13 19 1014.0 1011.7 4.6
 
Date/Time
WST
Temp
°C
App
Temp
°C
Dew
Point
Rel
Hum
%
Delta-T
°C
Wind Press
QNH
hPa
Press
MSL
hPa
Rain
since 9 am
mm
Dir
 
Spd
km/h
Gust
km/h
Spd
kts
Gust
kts
25/11:30pm 23.5 23.3 18.4 73 3.2 ESE 17 20 9 11 1012.1 1009.9 4.6
25/11:00pm 23.2 23.3 19.1 78 2.6 E 17 20 9 11 1012.4 1010.2 4.6
25/10:30pm 23.0 22.5 18.7 77 2.7 E 19 30 10 16 1012.8 1010.6 4.6
25/10:00pm 23.4 21.9 18.5 74 3.1 E 24 32 13 17 1012.6 1010.4 4.6
25/09:30pm 23.0 22.0 19.6 81 2.2 ESE 24 32 13 17 1013.2 1010.9 4.6
25/09:00pm 23.2 22.6 19.8 81 2.2 SE 22 28 12 15 1013.6 1011.3 4.6
25/08:30pm 24.4 21.0 17.6 66 4.3 SE 32 43 17 23 1013.6 1011.3 2.0
25/08:16pm 27.1 24.5 15.8 50 7.0 SE 24 33 13 18 1013.2 1010.9 0.0
25/08:11pm 27.2 22.5 16.8 53 6.5 SSW 37 57 20 31 1013.3 1011.0 0.0
25/08:00pm 27.7 22.4 14.3 43 8.1 E 35 46 19 25 1011.7 1009.5 0.0
25/07:30pm 27.9 22.6 15.2 46 7.8 E 37 57 20 31 1010.3 1008.0 0.0
25/07:24pm 27.9 23.0 15.2 46 7.8 E 35 57 19 31 1010.0 1007.7 0.0
25/07:00pm 27.8 23.2 16.1 49 7.3 E 35 50 19 27 1009.4 1007.2 0.0
25/06:30pm 28.2 22.6 15.5 46 7.9 E 39 52 21 28 1008.7 1006.5 0.0
25/06:00pm 29.6 23.4 15.0 41 9.0 E 41 57 22 31 1008.2 1005.9 0.0
25/05:59pm 29.7 23.8 14.7 40 9.2 E 39 57 21 31 1008.1 1005.8 0.0
25/05:30pm 30.7 26.0 15.9 40 9.3 ESE 35 50 19 27 1007.6 1005.3 0.0
25/05:00pm 30.2 25.5 16.9 44 8.5 ESE 37 46 20 25 1007.4 1005.1 0.0
25/04:58pm 29.8 24.6 16.6 45 8.4 ESE 39 46 21 25 1007.4 1005.1 0.0
25/04:30pm 31.5 27.7 16.6 40 9.5 E 32 44 17 24 1007.6 1005.3 0.0
25/04:00pm 32.8 27.6 14.4 33 11.4 ESE 35 59 19 32 1007.7 1005.4 0.0
25/03:51pm 33.3 27.3 14.4 32 11.7 ESE 39 59 21 32 1007.8 1005.5 0.0
25/03:30pm 34.0 29.4 15.0 32 11.9 ESE 33 48 18 26 1007.3 1005.0 0.0
25/03:04pm 36.3 31.6 14.3 27 13.8 NE 32 50 17 27 1006.6 1004.3 0.0
25/03:00pm 36.4 31.9 15.5 29 13.3 NE 33 50 18 27 1006.4 1004.1 0.0
25/02:56pm 37.8 33.7 15.0 26 14.5 E 30 54 16 29 1005.8 1003.6 0.0
25/02:30pm 39.1 36.3 14.2 23 15.7 E 22 33 12 18 1006.3 1004.0 0.0
25/02:00pm 39.9 36.0 13.4 21 16.6 E 26 39 14 21 1006.4 1004.1 0.0
25/01:30pm 40.3 37.3 13.8 21 16.7 E 22 32 12 17 1007.2 1004.9 0.0
25/01:00pm 41.5 37.9 13.2 19 17.8 ESE 24 39 13 21 1007.7 1005.4 0.0
25/12:30pm 40.8 36.2 13.4 20 17.2 E 30 43 16 23 1008.2 1005.9 0.0
25/12:00pm 39.9 37.0 14.1 21 16.3 E 22 33 12 18 1008.7 1006.5 0.0
25/11:30am 39.5 36.0 14.5 23 15.9 E 26 43 14 23 1009.2 1007.0 0.0
25/11:11am 39.3 35.4 14.3 22 15.8 E 28 46 15 25 1009.4 1007.2 0.0
25/11:00am 39.7 35.7 15.3 23 15.7 E 30 41 16 22 1009.7 1007.4 0.0
25/10:30am 38.1 33.5 14.6 24 14.9 E 32 69 17 37 1010.2 1007.9 0.0
25/10:23am 38.2 33.4 14.7 24 14.9 E 33 69 18 37 1010.2 1007.9 0.0
25/10:00am 37.5 32.7 14.1 24 14.7 E 32 46 17 25 1010.4 1008.1 0.0
25/09:43am 36.9 31.8 13.0 24 14.7 E 32 50 17 27 1010.5 1008.2 0.0
25/09:30am 36.5 31.3 12.7 24 14.6 E 32 46 17 25 1010.6 1008.3 0.0
25/09:00am 35.7 29.9 12.6 25 14.1 E 35 48 19 26 1010.8 1008.5 0.0
25/08:30am 35.2 29.2 12.2 25 13.9 E 35 50 19 27 1010.9 1008.6 0.0
25/08:00am 34.6 27.7 11.7 25 13.7 ESE 39 52 21 28 1010.8 1008.5 0.0
25/07:49am 34.4 27.7 10.9 24 13.9 ESE 37 56 20 30 1010.8 1008.5 0.0
25/07:30am 33.9 27.4 10.5 24 13.7 ESE 35 43 19 23 1010.7 1008.4 0.0
25/07:00am 32.6 25.6 10.0 25 13.1 SE 37 48 20 26 1010.5 1008.2 0.0
25/06:30am 32.1 25.4 9.6 25 12.9 SE 35 44 19 24 1010.3 1008.0 0.0
25/06:00am 30.2 24.2 8.6 26 12.1 SE 30 39 16 21 1010.0 1007.7 0.0
25/05:30am 30.2 24.6 8.6 26 12.1 SE 28 33 15 18 1009.7 1007.4 0.0
25/05:00am 30.1 25.2 8.5 26 12.1 SE 24 28 13 15 1009.4 1007.2 0.0
25/04:30am 30.2 26.2 9.1 27 11.9 SSE 20 24 11 13 1009.3 1007.1 0.0
25/04:00am 30.7 26.3 9.0 26 12.3 SSE 22 28 12 15 1009.0 1006.8 0.0
25/03:30am 31.4 26.8 9.6 26 12.5 SSE 24 32 13 17 1008.9 1006.7 0.0
25/03:00am 31.9 27.0 10.0 26 12.7 SSE 26 35 14 19 1008.9 1006.7 0.0
25/02:30am 32.0 27.5 10.1 26 12.7 SSE 24 37 13 20 1008.8 1006.6 0.0
25/02:00am 32.4 26.7 9.9 25 13.0 SSE 30 39 16 21 1008.9 1006.7 0.0
25/01:30am 32.7 27.6 10.7 26 12.9 S 28 35 15 19 1008.9 1006.7 0.0
25/01:00am 33.2 28.1 10.5 25 13.3 SSE 28 35 15 19 1009.0 1006.8 0.0
25/12:30am 33.4 29.3 10.1 24 13.6 S 22 28 12 15 1009.0 1006.8 0.0
25/12:00am 33.9 30.7 9.9 23 14.0 S 17 22 9 12 1009.3 1007.1 0.0
 
Date/Time
WST
Temp
°C
App
Temp
°C
Dew
Point
Rel
Hum
%
Delta-T
°C
Wind Press
QNH
hPa
Press
MSL
hPa
Rain
since 9 am
mm
Dir
 
Spd
km/h
Gust
km/h
Spd
kts
Gust
kts
24/11:30pm 34.6 30.4 9.8 22 14.4 S 22 33 12 18 1009.3 1007.1 0.0
24/11:00pm 35.6 31.2 7.6 18 15.9 SSE 20 28 11 15 1009.6 1007.3 0.0
24/10:30pm 36.2 32.0 7.3 17 16.3 S 19 24 10 13 1009.1 1006.9 0.0
24/10:00pm 36.8 33.6 6.9 16 16.9 SSW 13 20 7 11 1009.1 1006.9 0.0
24/09:30pm 37.2 32.6 6.3 15 17.3 S 20 26 11 14 1008.9 1006.7 0.0
24/09:00pm 37.3 32.5 7.3 16 17.1 SSW 22 30 12 16 1008.5 1006.3 0.0
24/08:30pm 37.6 33.6 6.6 15 17.4 SW 17 32 9 17 1008.4 1006.1 0.0
24/08:00pm 37.7 35.6 6.6 15 17.5 WSW 7 9 4 5 1008.1 1005.8 0.0
24/07:30pm 36.1 36.2 10.3 21 15.2 CALM 0 2 0 1 1007.9 1005.6 0.0
24/07:00pm 37.2 35.1 8.1 17 16.7 S 9 9 5 5 1007.5 1005.2 0.0
24/06:30pm 37.8 35.6 7.7 16 17.2 S 9 11 5 6 1007.2 1004.9 0.0
24/06:00pm 39.2 36.8 6.8 14 18.5 SSW 9 13 5 7 1006.8 1004.5 0.0
24/05:30pm 39.9 36.7 5.1 12 19.3 SW 11 15 6 8 1006.6 1004.3 0.0
24/05:00pm 40.1 37.7 5.3 12 19.5 SSE 7 13 4 7 1006.6 1004.3 0.0
24/04:30pm 40.8 38.5 5.8 12 19.7 S 7 11 4 6 1006.5 1004.2 0.0
24/04:00pm 40.7 37.6 5.7 12 19.8 S 11 20 6 11 1006.5 1004.2 0.0
24/03:30pm 41.7 39.2 6.5 12 20.1 SW 9 19 5 10 1006.6 1004.3 0.0
24/03:00pm 40.9 38.6 5.9 12 19.8 E 7 13 4 7 1006.9 1004.6 0.0
24/02:30pm 41.1 38.5 6.0 12 19.9 ENE 9 17 5 9 1007.2 1004.9 0.0
24/02:00pm 41.4 38.5 6.3 12 20.0 WNW 11 20 6 11 1007.6 1005.3 0.0
24/01:30pm 40.5 38.0 6.7 13 19.3 ESE 9 15 5 8 1008.1 1005.8 0.0
24/01:00pm 40.0 36.3 6.4 13 19.1 ESE 15 20 8 11 1008.5 1006.3 0.0
24/12:30pm 40.4 36.9 5.5 12 19.6 NE 13 20 7 11 1008.9 1006.7 0.0
24/12:00pm 40.4 37.5 6.7 13 19.3 E 11 22 6 12 1009.1 1006.9 0.0
24/11:30am 40.9 37.0 7.1 13 19.4 NE 17 24 9 13 1009.4 1007.2 0.0
24/11:00am 40.7 38.0 5.7 12 19.7 E 9 17 5 9 1009.8 1007.5 0.0
24/10:30am 40.5 36.9 6.7 13 19.3 E 15 28 8 15 1010.2 1007.9 0.0
24/10:00am 39.2 35.4 5.7 13 18.8 SE 15 24 8 13 1010.5 1008.2 0.0
24/09:30am 38.4 34.5 7.2 15 17.8 ESE 17 22 9 12 1010.8 1008.5 0.0
24/09:00am 38.1 33.8 7.9 16 17.4 SE 20 26 11 14 1011.0 1008.7 0.0
24/08:30am 36.1 32.6 8.8 19 15.8 S 17 24 9 13 1011.1 1008.8 0.0
24/08:00am 34.7 31.9 9.9 22 14.5 S 15 22 8 12 1011.1 1008.8 0.0
24/07:30am 32.6 31.1 10.6 26 12.9 SW 9 11 5 6 1011.0 1008.7 0.0
24/07:00am 31.1 29.3 11.0 29 11.8 WSW 11 15 6 8 1010.6 1008.3 0.0
24/06:30am 29.7 27.1 10.8 31 10.9 WSW 15 20 8 11 1010.3 1008.0 0.0
24/06:00am 29.5 27.2 10.6 31 10.9 W 13 17 7 9 1010.0 1007.7 0.0
24/05:30am 28.9 26.6 10.6 32 10.5 W 13 17 7 9 1009.9 1007.6 0.0
24/05:00am 28.5 26.5 10.2 32 10.5 W 11 17 6 9 1009.7 1007.4 0.0
24/04:30am 28.7 27.2 10.4 32 10.5 W 9 13 5 7 1009.4 1007.2 0.0
24/04:00am 28.7 27.5 10.4 32 10.5 W 7 11 4 6 1009.1 1006.9 0.0
24/03:30am 29.0 27.5 10.6 32 10.6 W 9 13 5 7 1009.0 1006.8 0.0
24/03:00am 28.7 28.2 10.8 33 10.3 W 4 9 2 5 1009.0 1006.8 0.0
24/02:30am 29.3 28.5 10.9 32 10.7 W 6 9 3 5 1009.2 1007.0 0.0
24/02:00am 29.2 29.1 10.8 32 10.6 WSW 2 7 1 4 1009.4 1007.2 0.0
24/01:30am 29.6 28.7 11.2 32 10.7 S 7 9 4 5 1009.4 1007.2 0.0
24/01:00am 29.6 28.7 11.2 32 10.7 W 7 11 4 6 1009.7 1007.4 0.0
24/12:30am 30.0 29.3 11.5 32 10.8 NNW 6 11 3 6 1009.9 1007.6 0.0
24/12:00am 31.5 29.6 11.8 30 11.7 NW 13 17 7 9 1010.1 1007.8 0.0
 
Date/Time
WST
Temp
°C
App
Temp
°C
Dew
Point
Rel
Hum
%
Delta-T
°C
Wind Press
QNH
hPa
Press
MSL
hPa
Rain
since 9 am
mm
Dir
 
Spd
km/h
Gust
km/h
Spd
kts
Gust
kts
23/11:30pm 32.3 29.9 11.5 28 12.3 NW 15 20 8 11 1010.3 1008.0 0.0
23/11:00pm 33.3 30.6 11.8 27 12.9 NW 17 24 9 13 1010.6 1008.3 0.0
23/10:30pm 34.5 30.4 11.6 25 13.7 WNW 24 30 13 16 1010.6 1008.3 0.0
23/10:00pm 33.5 32.6 10.8 25 13.4 SE 6 11 3 6 1010.5 1008.2 0.0
23/09:30pm 34.8 34.3 10.6 23 14.3 WSW 4 9 2 5 1010.3 1008.0 0.0
23/09:00pm 34.9 33.4 10.7 23 14.3 N 9 15 5 8 1009.7 1007.4 0.0
23/08:30pm 35.6 33.5 9.9 21 15.1 SSE 11 15 6 8 1009.1 1006.9 0.0
23/08:00pm 35.8 34.9 10.8 22 14.9 S 6 7 3 4 1009.1 1006.9 0.0
23/07:30pm 36.4 33.9 9.8 20 15.6 SSW 13 19 7 10 1008.6 1006.4 0.0
23/07:00pm 36.9 32.6 9.5 19 16.1 SW 22 32 12 17 1008.2 1005.9 0.0
23/06:30pm 37.1 32.7 10.4 20 15.9 W 24 37 13 20 1007.9 1005.6 0.0
23/06:00pm 37.3 35.8 10.6 20 15.9 WSW 9 13 5 7 1007.4 1005.1 0.0
23/05:30pm 37.4 32.5 9.9 19 16.2 SW 26 33 14 18 1007.2 1004.9 0.0
23/05:14pm 37.5 30.3 10.7 20 16.0 WSW 39 50 21 27 1007.0 1004.7 0.0
23/05:00pm 39.1 35.2 8.7 16 17.8 WNW 19 28 10 15 1006.9 1004.6 0.0
23/04:30pm 38.7 34.2 10.1 18 17.0 W 24 33 13 18 1006.6 1004.3 0.0
23/04:00pm 39.9 35.6 9.3 16 18.1 W 22 33 12 18 1006.4 1004.1 0.0
23/03:30pm 40.2 34.6 8.6 15 18.5 NW 28 33 15 18 1006.5 1004.2 0.0
23/03:00pm 40.1 36.2 8.5 15 18.5 NW 19 30 10 16 1006.7 1004.4 0.0
23/02:30pm 41.4 37.5 8.5 14 19.3 NW 19 35 10 19 1007.0 1004.7 0.0
23/02:00pm 41.0 35.3 8.2 14 19.2 NW 28 44 15 24 1007.3 1005.0 0.0
23/01:30pm 41.1 35.3 9.3 15 18.9 WNW 30 50 16 27 1007.6 1005.3 0.0
23/01:28pm 41.7 36.1 8.8 14 19.4 W 28 50 15 27 1007.5 1005.2 0.0

Other Formats:

Comma delimited format used in spreadsheet applications
http://www.bom.gov.au/fwo/IDW60801/IDW60801.94319.axf

JavaScript Object Notation format (JSON) in row-major order
http://www.bom.gov.au/fwo/IDW60801/IDW60801.94319.json